sensor_id;sensor_type;location;lat;lon;timestamp;P1;durP1;ratioP1;P2;durP2;ratioP2
66270;SDS011;53063;39.614;8.814;2023-06-01T00:00:19;6.43;;;2.83;;
66270;SDS011;53063;39.614;8.814;2023-06-01T00:02:46;7.88;;;2.90;;
66270;SDS011;53063;39.614;8.814;2023-06-01T00:05:12;12.25;;;3.35;;
66270;SDS011;53063;39.614;8.814;2023-06-01T00:07:38;4.90;;;2.70;;
66270;SDS011;53063;39.614;8.814;2023-06-01T00:10:04;5.32;;;2.72;;
66270;SDS011;53063;39.614;8.814;2023-06-01T00:12:30;4.68;;;2.38;;
66270;SDS011;53063;39.614;8.814;2023-06-01T00:14:56;5.82;;;3.00;;
66270;SDS011;53063;39.614;8.814;2023-06-01T00:17:22;4.28;;;2.70;;
66270;SDS011;53063;39.614;8.814;2023-06-01T00:19:48;5.70;;;2.65;;
66270;SDS011;53063;39.614;8.814;2023-06-01T00:22:15;3.75;;;2.63;;
66270;SDS011;53063;39.614;8.814;2023-06-01T00:24:42;4.82;;;2.67;;
66270;SDS011;53063;39.614;8.814;2023-06-01T00:27:07;5.25;;;3.05;;
66270;SDS011;53063;39.614;8.814;2023-06-01T00:29:33;6.10;;;2.70;;
66270;SDS011;53063;39.614;8.814;2023-06-01T00:31:59;6.68;;;3.08;;
66270;SDS011;53063;39.614;8.814;2023-06-01T00:34:26;4.80;;;2.92;;
66270;SDS011;53063;39.614;8.814;2023-06-01T00:36:52;5.45;;;2.80;;
66270;SDS011;53063;39.614;8.814;2023-06-01T00:39:17;5.28;;;2.80;;
66270;SDS011;53063;39.614;8.814;2023-06-01T00:41:44;5.45;;;3.10;;
66270;SDS011;53063;39.614;8.814;2023-06-01T00:44:10;5.97;;;2.67;;
66270;SDS011;53063;39.614;8.814;2023-06-01T00:46:36;5.63;;;2.53;;
66270;SDS011;53063;39.614;8.814;2023-06-01T00:49:02;3.30;;;2.35;;
66270;SDS011;53063;39.614;8.814;2023-06-01T00:51:28;5.07;;;2.65;;
66270;SDS011;53063;39.614;8.814;2023-06-01T00:53:54;7.43;;;2.83;;
66270;SDS011;53063;39.614;8.814;2023-06-01T00:56:20;5.38;;;2.67;;
66270;SDS011;53063;39.614;8.814;2023-06-01T00:58:47;6.45;;;2.28;;
66270;SDS011;53063;39.614;8.814;2023-06-01T01:01:13;4.07;;;2.50;;
66270;SDS011;53063;39.614;8.814;2023-06-01T01:03:48;4.30;;;2.47;;
66270;SDS011;53063;39.614;8.814;2023-06-01T01:12:07;6.25;;;2.75;;
66270;SDS011;53063;39.614;8.814;2023-06-01T01:14:50;4.50;;;2.88;;
66270;SDS011;53063;39.614;8.814;2023-06-01T01:17:27;4.35;;;3.05;;
66270;SDS011;53063;39.614;8.814;2023-06-01T01:20:22;6.60;;;3.17;;
66270;SDS011;53063;39.614;8.814;2023-06-01T01:25:52;4.55;;;3.05;;
66270;SDS011;53063;39.614;8.814;2023-06-01T01:31:18;4.53;;;2.70;;
66270;SDS011;53063;39.614;8.814;2023-06-01T01:33:50;4.30;;;3.03;;
66270;SDS011;53063;39.614;8.814;2023-06-01T01:36:20;4.38;;;2.70;;
66270;SDS011;53063;39.614;8.814;2023-06-01T01:38:47;4.70;;;2.58;;
66270;SDS011;53063;39.614;8.814;2023-06-01T01:41:14;6.22;;;2.90;;
66270;SDS011;53063;39.614;8.814;2023-06-01T01:43:41;6.40;;;2.92;;
66270;SDS011;53063;39.614;8.814;2023-06-01T01:48:37;7.85;;;3.03;;
66270;SDS011;53063;39.614;8.814;2023-06-01T01:53:41;5.50;;;2.72;;
66270;SDS011;53063;39.614;8.814;2023-06-01T01:56:10;7.10;;;3.03;;
66270;SDS011;53063;39.614;8.814;2023-06-01T01:58:39;5.38;;;3.20;;
66270;SDS011;53063;39.614;8.814;2023-06-01T02:01:06;4.85;;;3.35;;
66270;SDS011;53063;39.614;8.814;2023-06-01T02:03:34;6.47;;;2.80;;
66270;SDS011;53063;39.614;8.814;2023-06-01T02:06:00;5.80;;;2.88;;
66270;SDS011;53063;39.614;8.814;2023-06-01T02:08:26;4.10;;;2.80;;
66270;SDS011;53063;39.614;8.814;2023-06-01T02:10:51;5.32;;;2.90;;
66270;SDS011;53063;39.614;8.814;2023-06-01T02:13:17;4.25;;;2.83;;
66270;SDS011;53063;39.614;8.814;2023-06-01T02:15:43;6.15;;;2.88;;
66270;SDS011;53063;39.614;8.814;2023-06-01T02:18:09;5.32;;;2.95;;
66270;SDS011;53063;39.614;8.814;2023-06-01T02:20:36;7.05;;;3.38;;
66270;SDS011;53063;39.614;8.814;2023-06-01T02:23:02;7.13;;;3.25;;
66270;SDS011;53063;39.614;8.814;2023-06-01T02:25:28;5.65;;;2.90;;
66270;SDS011;53063;39.614;8.814;2023-06-01T02:27:54;4.75;;;2.67;;
66270;SDS011;53063;39.614;8.814;2023-06-01T02:30:19;5.95;;;2.97;;
66270;SDS011;53063;39.614;8.814;2023-06-01T02:32:46;5.60;;;3.15;;
66270;SDS011;53063;39.614;8.814;2023-06-01T02:35:14;5.75;;;2.75;;
66270;SDS011;53063;39.614;8.814;2023-06-01T02:37:40;4.47;;;2.50;;
66270;SDS011;53063;39.614;8.814;2023-06-01T02:40:06;4.38;;;2.65;;
66270;SDS011;53063;39.614;8.814;2023-06-01T02:42:37;10.70;;;3.53;;
66270;SDS011;53063;39.614;8.814;2023-06-01T02:45:07;4.35;;;3.17;;
66270;SDS011;53063;39.614;8.814;2023-06-01T02:47:34;5.55;;;2.80;;
66270;SDS011;53063;39.614;8.814;2023-06-01T02:50:00;5.38;;;3.20;;
66270;SDS011;53063;39.614;8.814;2023-06-01T02:52:26;5.65;;;2.88;;
66270;SDS011;53063;39.614;8.814;2023-06-01T02:54:53;6.68;;;3.10;;
66270;SDS011;53063;39.614;8.814;2023-06-01T02:57:38;5.47;;;3.35;;
66270;SDS011;53063;39.614;8.814;2023-06-01T03:00:05;4.22;;;2.70;;
66270;SDS011;53063;39.614;8.814;2023-06-01T03:02:41;3.90;;;2.58;;
66270;SDS011;53063;39.614;8.814;2023-06-01T03:05:11;9.52;;;3.45;;
66270;SDS011;53063;39.614;8.814;2023-06-01T03:07:42;7.18;;;3.55;;
66270;SDS011;53063;39.614;8.814;2023-06-01T03:10:16;6.18;;;3.50;;
66270;SDS011;53063;39.614;8.814;2023-06-01T03:13:01;5.75;;;3.08;;
66270;SDS011;53063;39.614;8.814;2023-06-01T03:15:27;5.32;;;3.13;;
66270;SDS011;53063;39.614;8.814;2023-06-01T03:17:53;7.28;;;3.28;;
66270;SDS011;53063;39.614;8.814;2023-06-01T03:20:19;4.93;;;3.30;;
66270;SDS011;53063;39.614;8.814;2023-06-01T03:22:45;5.85;;;3.40;;
66270;SDS011;53063;39.614;8.814;2023-06-01T03:25:12;4.68;;;3.15;;
66270;SDS011;53063;39.614;8.814;2023-06-01T03:27:38;5.05;;;3.00;;
66270;SDS011;53063;39.614;8.814;2023-06-01T03:30:05;7.43;;;3.53;;
66270;SDS011;53063;39.614;8.814;2023-06-01T03:32:36;6.80;;;3.15;;
66270;SDS011;53063;39.614;8.814;2023-06-01T03:35:03;6.95;;;3.08;;
66270;SDS011;53063;39.614;8.814;2023-06-01T03:37:34;5.80;;;2.75;;
66270;SDS011;53063;39.614;8.814;2023-06-01T03:40:02;6.97;;;3.10;;
66270;SDS011;53063;39.614;8.814;2023-06-01T03:45:09;5.95;;;3.33;;
66270;SDS011;53063;39.614;8.814;2023-06-01T03:47:36;5.18;;;2.92;;
66270;SDS011;53063;39.614;8.814;2023-06-01T03:50:03;5.43;;;3.10;;
66270;SDS011;53063;39.614;8.814;2023-06-01T03:52:31;7.82;;;3.15;;
66270;SDS011;53063;39.614;8.814;2023-06-01T03:54:58;7.63;;;2.53;;
66270;SDS011;53063;39.614;8.814;2023-06-01T03:57:47;4.43;;;2.70;;
66270;SDS011;53063;39.614;8.814;2023-06-01T04:00:14;5.68;;;3.22;;
66270;SDS011;53063;39.614;8.814;2023-06-01T04:02:50;5.18;;;2.53;;
66270;SDS011;53063;39.614;8.814;2023-06-01T04:05:18;7.03;;;2.85;;
66270;SDS011;53063;39.614;8.814;2023-06-01T04:07:44;6.53;;;2.67;;
66270;SDS011;53063;39.614;8.814;2023-06-01T04:10:12;7.50;;;3.13;;
66270;SDS011;53063;39.614;8.814;2023-06-01T04:12:42;4.95;;;2.83;;
66270;SDS011;53063;39.614;8.814;2023-06-01T04:15:10;6.45;;;2.75;;
66270;SDS011;53063;39.614;8.814;2023-06-01T04:17:38;5.68;;;3.35;;
66270;SDS011;53063;39.614;8.814;2023-06-01T04:20:05;8.80;;;3.15;;
66270;SDS011;53063;39.614;8.814;2023-06-01T04:22:34;6.38;;;2.97;;
66270;SDS011;53063;39.614;8.814;2023-06-01T04:25:07;7.38;;;2.83;;
66270;SDS011;53063;39.614;8.814;2023-06-01T04:27:35;6.60;;;3.10;;
66270;SDS011;53063;39.614;8.814;2023-06-01T04:30:04;6.25;;;2.78;;
66270;SDS011;53063;39.614;8.814;2023-06-01T04:32:37;5.75;;;3.03;;
66270;SDS011;53063;39.614;8.814;2023-06-01T04:35:06;10.32;;;3.22;;
66270;SDS011;53063;39.614;8.814;2023-06-01T04:37:33;6.78;;;3.42;;
66270;SDS011;53063;39.614;8.814;2023-06-01T04:40:02;5.63;;;2.92;;
66270;SDS011;53063;39.614;8.814;2023-06-01T04:42:37;6.20;;;3.40;;
66270;SDS011;53063;39.614;8.814;2023-06-01T04:45:07;5.85;;;2.88;;
66270;SDS011;53063;39.614;8.814;2023-06-01T04:47:35;8.30;;;3.45;;
66270;SDS011;53063;39.614;8.814;2023-06-01T04:50:10;8.18;;;3.20;;
66270;SDS011;53063;39.614;8.814;2023-06-01T04:52:37;6.30;;;2.90;;
66270;SDS011;53063;39.614;8.814;2023-06-01T04:55:04;4.20;;;2.70;;
66270;SDS011;53063;39.614;8.814;2023-06-01T04:57:31;5.00;;;2.80;;
66270;SDS011;53063;39.614;8.814;2023-06-01T05:00:02;4.57;;;2.60;;
66270;SDS011;53063;39.614;8.814;2023-06-01T05:02:31;8.48;;;2.95;;
66270;SDS011;53063;39.614;8.814;2023-06-01T05:04:57;4.53;;;2.70;;
66270;SDS011;53063;39.614;8.814;2023-06-01T05:07:23;5.63;;;2.60;;
66270;SDS011;53063;39.614;8.814;2023-06-01T05:09:50;7.03;;;2.70;;
66270;SDS011;53063;39.614;8.814;2023-06-01T05:12:16;8.65;;;2.92;;
66270;SDS011;53063;39.614;8.814;2023-06-01T05:14:42;7.82;;;3.10;;
66270;SDS011;53063;39.614;8.814;2023-06-01T05:17:09;6.90;;;3.35;;
66270;SDS011;53063;39.614;8.814;2023-06-01T05:19:35;5.57;;;3.22;;
66270;SDS011;53063;39.614;8.814;2023-06-01T05:22:01;8.23;;;3.40;;
66270;SDS011;53063;39.614;8.814;2023-06-01T05:24:27;6.70;;;2.67;;
66270;SDS011;53063;39.614;8.814;2023-06-01T05:26:53;5.75;;;3.10;;
66270;SDS011;53063;39.614;8.814;2023-06-01T05:29:19;4.63;;;2.60;;
66270;SDS011;53063;39.614;8.814;2023-06-01T05:31:46;6.53;;;3.15;;
66270;SDS011;53063;39.614;8.814;2023-06-01T05:34:13;6.90;;;3.10;;
66270;SDS011;53063;39.614;8.814;2023-06-01T05:36:40;5.30;;;2.47;;
66270;SDS011;53063;39.614;8.814;2023-06-01T05:39:06;7.60;;;3.47;;
66270;SDS011;53063;39.614;8.814;2023-06-01T05:41:33;7.00;;;3.50;;
66270;SDS011;53063;39.614;8.814;2023-06-01T05:43:59;6.72;;;3.63;;
66270;SDS011;53063;39.614;8.814;2023-06-01T05:46:26;8.27;;;3.85;;
66270;SDS011;53063;39.614;8.814;2023-06-01T05:48:52;8.07;;;3.53;;
66270;SDS011;53063;39.614;8.814;2023-06-01T05:51:18;7.90;;;3.47;;
66270;SDS011;53063;39.614;8.814;2023-06-01T05:53:44;5.68;;;3.22;;
66270;SDS011;53063;39.614;8.814;2023-06-01T05:56:10;6.60;;;3.97;;
66270;SDS011;53063;39.614;8.814;2023-06-01T05:58:36;9.02;;;4.30;;
66270;SDS011;53063;39.614;8.814;2023-06-01T06:01:02;5.18;;;2.80;;
66270;SDS011;53063;39.614;8.814;2023-06-01T06:03:28;5.95;;;2.45;;
66270;SDS011;53063;39.614;8.814;2023-06-01T06:05:54;9.50;;;2.40;;
66270;SDS011;53063;39.614;8.814;2023-06-01T06:08:20;5.40;;;2.83;;
66270;SDS011;53063;39.614;8.814;2023-06-01T06:10:46;4.40;;;2.00;;
66270;SDS011;53063;39.614;8.814;2023-06-01T06:13:13;3.58;;;1.95;;
66270;SDS011;53063;39.614;8.814;2023-06-01T06:15:40;4.25;;;2.28;;
66270;SDS011;53063;39.614;8.814;2023-06-01T06:18:05;2.65;;;1.92;;
66270;SDS011;53063;39.614;8.814;2023-06-01T06:20:32;4.38;;;2.33;;
66270;SDS011;53063;39.614;8.814;2023-06-01T06:22:57;9.93;;;2.50;;
66270;SDS011;53063;39.614;8.814;2023-06-01T06:25:23;4.03;;;2.10;;
66270;SDS011;53063;39.614;8.814;2023-06-01T06:27:49;3.45;;;2.10;;
66270;SDS011;53063;39.614;8.814;2023-06-01T06:30:15;5.00;;;2.47;;
66270;SDS011;53063;39.614;8.814;2023-06-01T06:32:41;4.65;;;1.90;;
66270;SDS011;53063;39.614;8.814;2023-06-01T06:35:08;3.80;;;2.47;;
66270;SDS011;53063;39.614;8.814;2023-06-01T06:37:38;6.07;;;2.15;;
66270;SDS011;53063;39.614;8.814;2023-06-01T06:40:08;3.53;;;2.60;;
66270;SDS011;53063;39.614;8.814;2023-06-01T06:42:35;3.40;;;1.92;;
66270;SDS011;53063;39.614;8.814;2023-06-01T06:45:01;3.63;;;2.10;;
66270;SDS011;53063;39.614;8.814;2023-06-01T06:47:27;4.53;;;2.25;;
66270;SDS011;53063;39.614;8.814;2023-06-01T06:49:53;5.03;;;2.35;;
66270;SDS011;53063;39.614;8.814;2023-06-01T06:52:19;2.80;;;1.95;;
66270;SDS011;53063;39.614;8.814;2023-06-01T06:54:45;3.35;;;2.10;;
66270;SDS011;53063;39.614;8.814;2023-06-01T06:57:11;6.50;;;2.20;;
66270;SDS011;53063;39.614;8.814;2023-06-01T06:59:37;4.95;;;2.38;;
66270;SDS011;53063;39.614;8.814;2023-06-01T07:02:03;6.82;;;2.05;;
66270;SDS011;53063;39.614;8.814;2023-06-01T07:04:30;6.05;;;1.95;;
66270;SDS011;53063;39.614;8.814;2023-06-01T07:06:56;5.55;;;2.58;;
66270;SDS011;53063;39.614;8.814;2023-06-01T07:09:22;4.40;;;2.10;;
66270;SDS011;53063;39.614;8.814;2023-06-01T07:11:48;4.53;;;2.03;;
66270;SDS011;53063;39.614;8.814;2023-06-01T07:14:14;4.15;;;2.30;;
66270;SDS011;53063;39.614;8.814;2023-06-01T07:16:40;5.53;;;2.30;;
66270;SDS011;53063;39.614;8.814;2023-06-01T07:19:07;5.68;;;2.40;;
66270;SDS011;53063;39.614;8.814;2023-06-01T07:21:33;7.03;;;2.20;;
66270;SDS011;53063;39.614;8.814;2023-06-01T07:24:01;5.38;;;2.28;;
66270;SDS011;53063;39.614;8.814;2023-06-01T07:26:29;5.63;;;1.90;;
66270;SDS011;53063;39.614;8.814;2023-06-01T07:28:55;5.85;;;1.85;;
66270;SDS011;53063;39.614;8.814;2023-06-01T07:31:22;4.60;;;2.33;;
66270;SDS011;53063;39.614;8.814;2023-06-01T07:33:48;6.15;;;2.38;;
66270;SDS011;53063;39.614;8.814;2023-06-01T07:36:18;4.15;;;1.98;;
66270;SDS011;53063;39.614;8.814;2023-06-01T07:38:45;4.88;;;2.00;;
66270;SDS011;53063;39.614;8.814;2023-06-01T07:41:11;4.30;;;2.15;;
66270;SDS011;53063;39.614;8.814;2023-06-01T07:43:37;5.38;;;2.60;;
66270;SDS011;53063;39.614;8.814;2023-06-01T07:46:03;4.45;;;2.10;;
66270;SDS011;53063;39.614;8.814;2023-06-01T07:48:29;5.32;;;2.08;;
66270;SDS011;53063;39.614;8.814;2023-06-01T07:51:01;6.65;;;2.35;;
66270;SDS011;53063;39.614;8.814;2023-06-01T07:53:28;4.25;;;2.30;;
66270;SDS011;53063;39.614;8.814;2023-06-01T07:55:54;5.18;;;2.38;;
66270;SDS011;53063;39.614;8.814;2023-06-01T07:58:20;5.75;;;1.77;;
66270;SDS011;53063;39.614;8.814;2023-06-01T08:00:46;4.20;;;2.00;;
66270;SDS011;53063;39.614;8.814;2023-06-01T08:03:12;3.97;;;2.05;;
66270;SDS011;53063;39.614;8.814;2023-06-01T08:05:39;3.72;;;2.13;;
66270;SDS011;53063;39.614;8.814;2023-06-01T08:08:08;3.15;;;1.92;;
66270;SDS011;53063;39.614;8.814;2023-06-01T08:10:34;6.78;;;2.45;;
66270;SDS011;53063;39.614;8.814;2023-06-01T08:13:00;9.45;;;2.83;;
66270;SDS011;53063;39.614;8.814;2023-06-01T08:15:27;6.30;;;2.30;;
66270;SDS011;53063;39.614;8.814;2023-06-01T08:17:54;4.40;;;2.05;;
66270;SDS011;53063;39.614;8.814;2023-06-01T08:20:22;3.53;;;1.98;;
66270;SDS011;53063;39.614;8.814;2023-06-01T08:22:49;6.13;;;2.63;;
66270;SDS011;53063;39.614;8.814;2023-06-01T08:25:16;6.50;;;2.35;;
66270;SDS011;53063;39.614;8.814;2023-06-01T08:27:43;5.10;;;2.72;;
66270;SDS011;53063;39.614;8.814;2023-06-01T08:30:09;7.75;;;2.30;;
66270;SDS011;53063;39.614;8.814;2023-06-01T08:32:36;7.00;;;2.10;;
66270;SDS011;53063;39.614;8.814;2023-06-01T08:35:04;6.88;;;2.63;;
66270;SDS011;53063;39.614;8.814;2023-06-01T08:37:33;5.15;;;2.20;;
66270;SDS011;53063;39.614;8.814;2023-06-01T08:40:00;3.53;;;1.80;;
66270;SDS011;53063;39.614;8.814;2023-06-01T08:45:03;4.13;;;2.00;;
66270;SDS011;53063;39.614;8.814;2023-06-01T08:47:30;4.78;;;2.00;;
66270;SDS011;53063;39.614;8.814;2023-06-01T08:50:00;4.85;;;1.90;;
66270;SDS011;53063;39.614;8.814;2023-06-01T08:52:27;3.67;;;1.65;;
66270;SDS011;53063;39.614;8.814;2023-06-01T08:55:00;3.92;;;1.95;;
66270;SDS011;53063;39.614;8.814;2023-06-01T08:57:27;3.95;;;2.05;;
66270;SDS011;53063;39.614;8.814;2023-06-01T08:59:57;4.95;;;2.20;;
66270;SDS011;53063;39.614;8.814;2023-06-01T09:02:24;5.40;;;2.15;;
66270;SDS011;53063;39.614;8.814;2023-06-01T09:04:51;4.82;;;1.60;;
66270;SDS011;53063;39.614;8.814;2023-06-01T09:07:17;7.90;;;1.80;;
66270;SDS011;53063;39.614;8.814;2023-06-01T09:09:44;4.68;;;1.95;;
66270;SDS011;53063;39.614;8.814;2023-06-01T09:17:38;4.30;;;1.77;;
66270;SDS011;53063;39.614;8.814;2023-06-01T09:20:05;3.83;;;2.00;;
66270;SDS011;53063;39.614;8.814;2023-06-01T09:22:38;6.53;;;2.15;;
66270;SDS011;53063;39.614;8.814;2023-06-01T09:25:05;6.90;;;2.22;;
66270;SDS011;53063;39.614;8.814;2023-06-01T09:27:51;5.20;;;2.30;;
66270;SDS011;53063;39.614;8.814;2023-06-01T09:30:19;4.40;;;1.70;;
66270;SDS011;53063;39.614;8.814;2023-06-01T09:32:46;3.97;;;2.30;;
66270;SDS011;53063;39.614;8.814;2023-06-01T09:36:00;3.17;;;1.92;;
66270;SDS011;53063;39.614;8.814;2023-06-01T09:38:02;3.42;;;2.03;;
66270;SDS011;53063;39.614;8.814;2023-06-01T09:40:31;8.70;;;2.40;;
66270;SDS011;53063;39.614;8.814;2023-06-01T09:42:59;3.55;;;2.22;;
66270;SDS011;53063;39.614;8.814;2023-06-01T09:45:25;4.72;;;1.90;;
66270;SDS011;53063;39.614;8.814;2023-06-01T09:47:51;4.53;;;1.92;;
66270;SDS011;53063;39.614;8.814;2023-06-01T09:50:33;4.85;;;2.20;;
66270;SDS011;53063;39.614;8.814;2023-06-01T09:53:04;3.33;;;2.17;;
66270;SDS011;53063;39.614;8.814;2023-06-01T09:55:30;4.43;;;1.92;;
66270;SDS011;53063;39.614;8.814;2023-06-01T10:00:46;4.63;;;1.92;;
66270;SDS011;53063;39.614;8.814;2023-06-01T10:03:14;3.78;;;1.83;;
66270;SDS011;53063;39.614;8.814;2023-06-01T10:05:41;3.30;;;1.90;;
66270;SDS011;53063;39.614;8.814;2023-06-01T10:08:12;9.40;;;3.97;;
66270;SDS011;53063;39.614;8.814;2023-06-01T10:10:43;5.38;;;2.35;;
66270;SDS011;53063;39.614;8.814;2023-06-01T10:13:11;6.70;;;1.95;;
66270;SDS011;53063;39.614;8.814;2023-06-01T10:15:37;5.00;;;2.40;;
66270;SDS011;53063;39.614;8.814;2023-06-01T10:18:04;5.45;;;2.60;;
66270;SDS011;53063;39.614;8.814;2023-06-01T10:20:33;5.85;;;2.33;;
66270;SDS011;53063;39.614;8.814;2023-06-01T10:23:00;4.78;;;2.40;;
66270;SDS011;53063;39.614;8.814;2023-06-01T10:25:37;5.03;;;2.15;;
66270;SDS011;53063;39.614;8.814;2023-06-01T10:28:08;5.65;;;1.98;;
66270;SDS011;53063;39.614;8.814;2023-06-01T10:30:36;5.50;;;1.98;;
66270;SDS011;53063;39.614;8.814;2023-06-01T10:33:03;5.03;;;2.22;;
66270;SDS011;53063;39.614;8.814;2023-06-01T10:38:28;6.15;;;2.35;;
66270;SDS011;53063;39.614;8.814;2023-06-01T10:40:48;3.65;;;2.15;;
66270;SDS011;53063;39.614;8.814;2023-06-01T10:46:02;3.38;;;1.98;;
66270;SDS011;53063;39.614;8.814;2023-06-01T10:51:17;5.03;;;1.70;;
66270;SDS011;53063;39.614;8.814;2023-06-01T10:53:45;5.93;;;1.90;;
66270;SDS011;53063;39.614;8.814;2023-06-01T10:56:18;2.35;;;1.70;;
66270;SDS011;53063;39.614;8.814;2023-06-01T11:01:37;5.75;;;1.90;;
66270;SDS011;53063;39.614;8.814;2023-06-01T11:04:03;5.03;;;2.08;;
66270;SDS011;53063;39.614;8.814;2023-06-01T11:06:31;2.88;;;1.65;;
66270;SDS011;53063;39.614;8.814;2023-06-01T11:08:59;4.60;;;1.67;;
66270;SDS011;53063;39.614;8.814;2023-06-01T11:14:17;2.63;;;1.50;;
66270;SDS011;53063;39.614;8.814;2023-06-01T11:16:49;5.32;;;2.03;;
66270;SDS011;53063;39.614;8.814;2023-06-01T11:19:19;3.63;;;1.60;;
66270;SDS011;53063;39.614;8.814;2023-06-01T11:21:54;4.20;;;1.93;;
66270;SDS011;53063;39.614;8.814;2023-06-01T11:24:31;5.18;;;1.88;;
66270;SDS011;53063;39.614;8.814;2023-06-01T11:27:08;4.93;;;2.22;;
66270;SDS011;53063;39.614;8.814;2023-06-01T11:29:35;4.00;;;2.42;;
66270;SDS011;53063;39.614;8.814;2023-06-01T11:32:02;3.30;;;1.85;;
66270;SDS011;53063;39.614;8.814;2023-06-01T11:34:34;5.05;;;1.92;;
66270;SDS011;53063;39.614;8.814;2023-06-01T11:37:11;4.75;;;2.10;;
66270;SDS011;53063;39.614;8.814;2023-06-01T11:39:41;6.72;;;1.98;;
66270;SDS011;53063;39.614;8.814;2023-06-01T11:42:08;4.13;;;2.10;;
66270;SDS011;53063;39.614;8.814;2023-06-01T11:44:44;5.10;;;1.90;;
66270;SDS011;53063;39.614;8.814;2023-06-01T11:47:20;4.85;;;1.95;;
66270;SDS011;53063;39.614;8.814;2023-06-01T11:49:47;2.92;;;1.92;;
66270;SDS011;53063;39.614;8.814;2023-06-01T11:52:17;3.65;;;2.10;;
66270;SDS011;53063;39.614;8.814;2023-06-01T11:54:44;7.10;;;2.00;;
66270;SDS011;53063;39.614;8.814;2023-06-01T11:57:10;5.07;;;2.25;;
66270;SDS011;53063;39.614;8.814;2023-06-01T11:59:37;3.95;;;1.83;;
66270;SDS011;53063;39.614;8.814;2023-06-01T12:07:22;5.68;;;1.92;;
66270;SDS011;53063;39.614;8.814;2023-06-01T12:09:50;4.55;;;2.17;;
66270;SDS011;53063;39.614;8.814;2023-06-01T12:12:21;2.60;;;1.80;;
66270;SDS011;53063;39.614;8.814;2023-06-01T12:14:49;3.25;;;2.08;;
66270;SDS011;53063;39.614;8.814;2023-06-01T12:17:15;4.22;;;2.05;;
66270;SDS011;53063;39.614;8.814;2023-06-01T12:19:48;1.88;;;1.50;;
66270;SDS011;53063;39.614;8.814;2023-06-01T12:22:15;2.58;;;1.75;;
66270;SDS011;53063;39.614;8.814;2023-06-01T12:24:44;2.72;;;1.50;;
66270;SDS011;53063;39.614;8.814;2023-06-01T12:27:15;4.18;;;1.73;;
66270;SDS011;53063;39.614;8.814;2023-06-01T12:29:43;2.05;;;1.50;;
66270;SDS011;53063;39.614;8.814;2023-06-01T12:32:11;3.85;;;2.20;;
66270;SDS011;53063;39.614;8.814;2023-06-01T12:34:40;3.33;;;1.60;;
66270;SDS011;53063;39.614;8.814;2023-06-01T12:37:19;4.88;;;2.28;;
66270;SDS011;53063;39.614;8.814;2023-06-01T12:42:19;6.05;;;1.88;;
66270;SDS011;53063;39.614;8.814;2023-06-01T12:45:00;3.05;;;2.20;;
66270;SDS011;53063;39.614;8.814;2023-06-01T12:47:25;6.32;;;2.38;;
66270;SDS011;53063;39.614;8.814;2023-06-01T12:50:01;3.80;;;1.90;;
66270;SDS011;53063;39.614;8.814;2023-06-01T12:52:28;3.05;;;1.83;;
66270;SDS011;53063;39.614;8.814;2023-06-01T12:54:54;4.93;;;2.10;;
66270;SDS011;53063;39.614;8.814;2023-06-01T12:57:20;3.58;;;1.70;;
66270;SDS011;53063;39.614;8.814;2023-06-01T12:59:46;2.40;;;1.20;;
66270;SDS011;53063;39.614;8.814;2023-06-01T13:02:16;3.55;;;1.90;;
66270;SDS011;53063;39.614;8.814;2023-06-01T13:04:42;3.80;;;2.20;;
66270;SDS011;53063;39.614;8.814;2023-06-01T13:07:09;4.97;;;2.05;;
66270;SDS011;53063;39.614;8.814;2023-06-01T13:09:35;4.28;;;1.80;;
66270;SDS011;53063;39.614;8.814;2023-06-01T13:12:01;2.42;;;1.60;;
66270;SDS011;53063;39.614;8.814;2023-06-01T13:14:29;3.50;;;1.80;;
66270;SDS011;53063;39.614;8.814;2023-06-01T13:16:55;1.92;;;1.45;;
66270;SDS011;53063;39.614;8.814;2023-06-01T13:19:21;3.33;;;1.67;;
66270;SDS011;53063;39.614;8.814;2023-06-01T13:21:50;1.92;;;1.40;;
66270;SDS011;53063;39.614;8.814;2023-06-01T13:24:17;6.38;;;1.75;;
66270;SDS011;53063;39.614;8.814;2023-06-01T13:26:43;6.53;;;1.45;;
66270;SDS011;53063;39.614;8.814;2023-06-01T13:29:09;3.63;;;1.70;;
66270;SDS011;53063;39.614;8.814;2023-06-01T13:31:35;5.75;;;1.90;;
66270;SDS011;53063;39.614;8.814;2023-06-01T13:34:02;3.28;;;1.83;;
66270;SDS011;53063;39.614;8.814;2023-06-01T13:36:29;3.13;;;1.90;;
66270;SDS011;53063;39.614;8.814;2023-06-01T13:38:55;3.72;;;1.88;;
66270;SDS011;53063;39.614;8.814;2023-06-01T13:41:21;3.88;;;1.73;;
66270;SDS011;53063;39.614;8.814;2023-06-01T13:43:47;4.95;;;2.05;;
66270;SDS011;53063;39.614;8.814;2023-06-01T13:46:13;6.07;;;1.88;;
66270;SDS011;53063;39.614;8.814;2023-06-01T13:48:40;3.58;;;1.60;;
66270;SDS011;53063;39.614;8.814;2023-06-01T13:51:06;4.40;;;1.75;;
66270;SDS011;53063;39.614;8.814;2023-06-01T13:53:32;3.10;;;1.45;;
66270;SDS011;53063;39.614;8.814;2023-06-01T13:55:59;4.25;;;1.92;;
66270;SDS011;53063;39.614;8.814;2023-06-01T13:58:25;3.55;;;1.65;;
66270;SDS011;53063;39.614;8.814;2023-06-01T14:00:51;4.85;;;1.80;;
66270;SDS011;53063;39.614;8.814;2023-06-01T14:03:17;4.13;;;1.77;;
66270;SDS011;53063;39.614;8.814;2023-06-01T14:05:43;4.82;;;1.65;;
66270;SDS011;53063;39.614;8.814;2023-06-01T14:08:09;4.63;;;1.65;;
66270;SDS011;53063;39.614;8.814;2023-06-01T14:10:36;3.17;;;1.63;;
66270;SDS011;53063;39.614;8.814;2023-06-01T14:13:02;4.13;;;2.00;;
66270;SDS011;53063;39.614;8.814;2023-06-01T14:15:28;3.08;;;1.63;;
66270;SDS011;53063;39.614;8.814;2023-06-01T14:17:54;4.85;;;1.67;;
66270;SDS011;53063;39.614;8.814;2023-06-01T14:20:21;2.35;;;1.60;;
66270;SDS011;53063;39.614;8.814;2023-06-01T14:22:47;4.05;;;1.90;;
66270;SDS011;53063;39.614;8.814;2023-06-01T14:25:13;4.50;;;1.75;;
66270;SDS011;53063;39.614;8.814;2023-06-01T14:27:39;2.58;;;1.30;;
66270;SDS011;53063;39.614;8.814;2023-06-01T14:30:06;3.42;;;1.80;;
66270;SDS011;53063;39.614;8.814;2023-06-01T14:32:32;2.63;;;1.80;;
66270;SDS011;53063;39.614;8.814;2023-06-01T14:34:59;3.13;;;1.70;;
66270;SDS011;53063;39.614;8.814;2023-06-01T14:37:25;3.05;;;1.40;;
66270;SDS011;53063;39.614;8.814;2023-06-01T14:39:51;2.53;;;1.67;;
66270;SDS011;53063;39.614;8.814;2023-06-01T14:42:17;2.50;;;1.63;;
66270;SDS011;53063;39.614;8.814;2023-06-01T14:44:43;3.08;;;1.30;;
66270;SDS011;53063;39.614;8.814;2023-06-01T14:47:10;2.72;;;1.60;;
66270;SDS011;53063;39.614;8.814;2023-06-01T14:49:39;4.38;;;1.30;;
66270;SDS011;53063;39.614;8.814;2023-06-01T14:52:05;2.42;;;1.40;;
66270;SDS011;53063;39.614;8.814;2023-06-01T14:54:31;2.70;;;1.33;;
66270;SDS011;53063;39.614;8.814;2023-06-01T14:56:57;3.95;;;1.65;;
66270;SDS011;53063;39.614;8.814;2023-06-01T14:59:24;3.63;;;1.80;;
66270;SDS011;53063;39.614;8.814;2023-06-01T15:01:50;31.73;;;3.10;;
66270;SDS011;53063;39.614;8.814;2023-06-01T15:04:16;2.60;;;1.45;;
66270;SDS011;53063;39.614;8.814;2023-06-01T15:06:41;3.95;;;1.67;;
66270;SDS011;53063;39.614;8.814;2023-06-01T15:09:07;5.45;;;1.63;;
66270;SDS011;53063;39.614;8.814;2023-06-01T15:11:33;8.55;;;1.95;;
66270;SDS011;53063;39.614;8.814;2023-06-01T15:13:59;24.13;;;2.33;;
66270;SDS011;53063;39.614;8.814;2023-06-01T15:16:25;3.05;;;1.60;;
66270;SDS011;53063;39.614;8.814;2023-06-01T15:18:53;2.78;;;1.70;;
66270;SDS011;53063;39.614;8.814;2023-06-01T15:21:19;6.80;;;1.73;;
66270;SDS011;53063;39.614;8.814;2023-06-01T15:23:47;3.40;;;1.92;;
66270;SDS011;53063;39.614;8.814;2023-06-01T15:26:12;2.80;;;1.45;;
66270;SDS011;53063;39.614;8.814;2023-06-01T15:28:38;5.20;;;1.60;;
66270;SDS011;53063;39.614;8.814;2023-06-01T15:31:04;3.17;;;1.55;;
66270;SDS011;53063;39.614;8.814;2023-06-01T15:33:30;2.42;;;1.45;;
66270;SDS011;53063;39.614;8.814;2023-06-01T15:35:56;4.47;;;2.33;;
66270;SDS011;53063;39.614;8.814;2023-06-01T15:38:22;3.90;;;1.42;;
66270;SDS011;53063;39.614;8.814;2023-06-01T15:40:48;3.15;;;1.95;;
66270;SDS011;53063;39.614;8.814;2023-06-01T15:43:14;3.72;;;1.45;;